sensor_id;sensor_type;location;lat;lon;timestamp;temperature;humidity
18406;DHT22;9329;48.720;9.588;2022-10-23T00:02:01;13.20;99.90
18406;DHT22;9329;48.720;9.588;2022-10-23T00:04:28;13.10;99.90
18406;DHT22;9329;48.720;9.588;2022-10-23T00:06:55;13.30;99.90
18406;DHT22;9329;48.720;9.588;2022-10-23T00:09:23;13.30;99.90
18406;DHT22;9329;48.720;9.588;2022-10-23T00:11:50;13.40;99.90
18406;DHT22;9329;48.720;9.588;2022-10-23T00:14:17;13.40;99.90
18406;DHT22;9329;48.720;9.588;2022-10-23T00:16:45;13.40;99.90
18406;DHT22;9329;48.720;9.588;2022-10-23T00:19:13;13.40;99.90
18406;DHT22;9329;48.720;9.588;2022-10-23T00:21:40;13.40;99.90
18406;DHT22;9329;48.720;9.588;2022-10-23T00:24:07;13.40;99.90
18406;DHT22;9329;48.720;9.588;2022-10-23T00:26:34;13.50;99.90
18406;DHT22;9329;48.720;9.588;2022-10-23T00:29:02;13.50;99.90
18406;DHT22;9329;48.720;9.588;2022-10-23T00:31:30;13.40;99.90
18406;DHT22;9329;48.720;9.588;2022-10-23T00:33:58;13.30;99.90
18406;DHT22;9329;48.720;9.588;2022-10-23T00:36:27;13.10;99.90
18406;DHT22;9329;48.720;9.588;2022-10-23T00:38:54;13.10;99.90
18406;DHT22;9329;48.720;9.588;2022-10-23T00:41:21;12.90;99.90
18406;DHT22;9329;48.720;9.588;2022-10-23T00:43:59;13.10;99.90
18406;DHT22;9329;48.720;9.588;2022-10-23T00:46:26;13.30;99.90
18406;DHT22;9329;48.720;9.588;2022-10-23T00:48:53;13.10;99.90
18406;DHT22;9329;48.720;9.588;2022-10-23T00:51:20;13.30;99.90
18406;DHT22;9329;48.720;9.588;2022-10-23T00:53:49;13.30;99.90
18406;DHT22;9329;48.720;9.588;2022-10-23T00:56:18;13.00;99.90
18406;DHT22;9329;48.720;9.588;2022-10-23T00:58:45;13.20;99.90
18406;DHT22;9329;48.720;9.588;2022-10-23T01:01:15;13.20;99.90
18406;DHT22;9329;48.720;9.588;2022-10-23T01:03:43;13.20;99.90
18406;DHT22;9329;48.720;9.588;2022-10-23T01:06:11;13.20;99.90
18406;DHT22;9329;48.720;9.588;2022-10-23T01:08:40;13.30;99.90
18406;DHT22;9329;48.720;9.588;2022-10-23T01:11:12;13.20;99.90
18406;DHT22;9329;48.720;9.588;2022-10-23T01:13:42;13.20;99.90
18406;DHT22;9329;48.720;9.588;2022-10-23T01:16:10;13.10;99.90
18406;DHT22;9329;48.720;9.588;2022-10-23T01:18:40;13.10;99.90
18406;DHT22;9329;48.720;9.588;2022-10-23T01:21:12;13.20;99.90
18406;DHT22;9329;48.720;9.588;2022-10-23T01:26:28;13.10;99.90
18406;DHT22;9329;48.720;9.588;2022-10-23T01:29:00;12.90;99.90
18406;DHT22;9329;48.720;9.588;2022-10-23T01:31:30;13.00;99.90
18406;DHT22;9329;48.720;9.588;2022-10-23T01:33:59;12.80;99.90
18406;DHT22;9329;48.720;9.588;2022-10-23T01:36:29;13.10;99.90
18406;DHT22;9329;48.720;9.588;2022-10-23T01:38:59;13.10;99.90
18406;DHT22;9329;48.720;9.588;2022-10-23T01:41:28;13.10;99.90
18406;DHT22;9329;48.720;9.588;2022-10-23T01:43:57;13.00;99.90
18406;DHT22;9329;48.720;9.588;2022-10-23T01:46:32;13.00;99.90
18406;DHT22;9329;48.720;9.588;2022-10-23T01:49:02;13.00;99.90
18406;DHT22;9329;48.720;9.588;2022-10-23T01:51:31;12.90;99.90
18406;DHT22;9329;48.720;9.588;2022-10-23T01:54:04;12.90;99.90
18406;DHT22;9329;48.720;9.588;2022-10-23T01:56:32;13.00;99.90
18406;DHT22;9329;48.720;9.588;2022-10-23T01:59:00;12.90;99.90
18406;DHT22;9329;48.720;9.588;2022-10-23T02:01:33;12.90;99.90
18406;DHT22;9329;48.720;9.588;2022-10-23T02:04:03;12.90;99.90
18406;DHT22;9329;48.720;9.588;2022-10-23T02:06:31;12.90;99.90
18406;DHT22;9329;48.720;9.588;2022-10-23T02:09:00;13.10;99.90
18406;DHT22;9329;48.720;9.588;2022-10-23T02:11:27;13.00;99.90
18406;DHT22;9329;48.720;9.588;2022-10-23T02:13:55;12.80;99.90
18406;DHT22;9329;48.720;9.588;2022-10-23T02:16:26;13.10;99.90
18406;DHT22;9329;48.720;9.588;2022-10-23T02:18:59;13.10;99.90
18406;DHT22;9329;48.720;9.588;2022-10-23T02:21:30;12.90;99.90
18406;DHT22;9329;48.720;9.588;2022-10-23T02:24:00;12.70;99.90
18406;DHT22;9329;48.720;9.588;2022-10-23T02:26:28;12.70;99.90
18406;DHT22;9329;48.720;9.588;2022-10-23T02:28:57;12.60;99.90
18406;DHT22;9329;48.720;9.588;2022-10-23T02:31:25;12.80;99.90
18406;DHT22;9329;48.720;9.588;2022-10-23T02:33:52;12.70;99.90
18406;DHT22;9329;48.720;9.588;2022-10-23T02:36:20;12.80;99.90
18406;DHT22;9329;48.720;9.588;2022-10-23T02:38:48;12.90;99.90
18406;DHT22;9329;48.720;9.588;2022-10-23T02:41:16;13.00;99.90
18406;DHT22;9329;48.720;9.588;2022-10-23T02:43:45;13.00;99.90
18406;DHT22;9329;48.720;9.588;2022-10-23T02:46:15;13.00;99.90
18406;DHT22;9329;48.720;9.588;2022-10-23T02:48:47;13.00;99.90
18406;DHT22;9329;48.720;9.588;2022-10-23T02:51:21;13.10;99.90
18406;DHT22;9329;48.720;9.588;2022-10-23T02:53:53;12.90;99.90
18406;DHT22;9329;48.720;9.588;2022-10-23T02:56:29;13.00;99.90
18406;DHT22;9329;48.720;9.588;2022-10-23T02:59:00;13.10;99.90
18406;DHT22;9329;48.720;9.588;2022-10-23T03:01:32;13.20;99.90
18406;DHT22;9329;48.720;9.588;2022-10-23T03:04:02;12.80;99.90
18406;DHT22;9329;48.720;9.588;2022-10-23T03:06:32;13.20;99.90
18406;DHT22;9329;48.720;9.588;2022-10-23T03:09:01;13.20;99.90
18406;DHT22;9329;48.720;9.588;2022-10-23T03:11:28;13.10;99.90
18406;DHT22;9329;48.720;9.588;2022-10-23T03:13:55;13.30;99.90
18406;DHT22;9329;48.720;9.588;2022-10-23T03:16:22;13.30;99.90
18406;DHT22;9329;48.720;9.588;2022-10-23T03:18:52;13.30;99.90
18406;DHT22;9329;48.720;9.588;2022-10-23T03:21:18;13.30;99.90
18406;DHT22;9329;48.720;9.588;2022-10-23T03:23:51;13.30;99.90
18406;DHT22;9329;48.720;9.588;2022-10-23T03:26:24;13.40;99.90
18406;DHT22;9329;48.720;9.588;2022-10-23T03:28:52;13.40;99.90
18406;DHT22;9329;48.720;9.588;2022-10-23T03:31:22;13.30;99.90
18406;DHT22;9329;48.720;9.588;2022-10-23T03:33:54;13.40;99.90
18406;DHT22;9329;48.720;9.588;2022-10-23T03:36:21;13.50;99.90
18406;DHT22;9329;48.720;9.588;2022-10-23T03:38:47;13.40;99.90
18406;DHT22;9329;48.720;9.588;2022-10-23T03:41:15;13.40;99.90
18406;DHT22;9329;48.720;9.588;2022-10-23T03:43:42;13.40;99.90
18406;DHT22;9329;48.720;9.588;2022-10-23T03:46:09;13.40;99.90
18406;DHT22;9329;48.720;9.588;2022-10-23T03:48:37;13.50;99.90
18406;DHT22;9329;48.720;9.588;2022-10-23T03:51:04;13.50;99.90
18406;DHT22;9329;48.720;9.588;2022-10-23T03:53:31;13.60;99.90
18406;DHT22;9329;48.720;9.588;2022-10-23T03:56:01;13.80;99.90
18406;DHT22;9329;48.720;9.588;2022-10-23T03:58:29;13.80;99.90
18406;DHT22;9329;48.720;9.588;2022-10-23T04:00:56;13.90;99.90
18406;DHT22;9329;48.720;9.588;2022-10-23T04:03:23;13.80;99.90
18406;DHT22;9329;48.720;9.588;2022-10-23T04:05:50;13.80;99.90
18406;DHT22;9329;48.720;9.588;2022-10-23T04:08:20;13.70;99.90
18406;DHT22;9329;48.720;9.588;2022-10-23T04:10:49;13.80;99.90
18406;DHT22;9329;48.720;9.588;2022-10-23T04:13:20;13.80;99.90
18406;DHT22;9329;48.720;9.588;2022-10-23T04:15:48;13.70;99.90
18406;DHT22;9329;48.720;9.588;2022-10-23T04:18:16;13.80;99.90
18406;DHT22;9329;48.720;9.588;2022-10-23T04:20:43;13.80;99.90
18406;DHT22;9329;48.720;9.588;2022-10-23T04:23:12;13.70;99.90
18406;DHT22;9329;48.720;9.588;2022-10-23T04:25:40;13.60;99.90
18406;DHT22;9329;48.720;9.588;2022-10-23T04:28:07;13.40;99.90
18406;DHT22;9329;48.720;9.588;2022-10-23T04:30:37;13.40;99.90
18406;DHT22;9329;48.720;9.588;2022-10-23T04:33:06;13.90;99.90
18406;DHT22;9329;48.720;9.588;2022-10-23T04:35:33;13.50;99.90
18406;DHT22;9329;48.720;9.588;2022-10-23T04:37:59;13.30;99.90
18406;DHT22;9329;48.720;9.588;2022-10-23T04:40:27;13.60;99.90
18406;DHT22;9329;48.720;9.588;2022-10-23T04:42:54;13.50;99.90
18406;DHT22;9329;48.720;9.588;2022-10-23T04:45:21;13.70;99.90
18406;DHT22;9329;48.720;9.588;2022-10-23T04:47:48;13.90;99.90
18406;DHT22;9329;48.720;9.588;2022-10-23T04:50:16;14.00;99.90
18406;DHT22;9329;48.720;9.588;2022-10-23T04:53:02;14.00;99.90
18406;DHT22;9329;48.720;9.588;2022-10-23T04:55:59;14.00;99.90
18406;DHT22;9329;48.720;9.588;2022-10-23T04:58:34;13.90;99.90
18406;DHT22;9329;48.720;9.588;2022-10-23T05:01:01;14.00;99.90
18406;DHT22;9329;48.720;9.588;2022-10-23T05:03:28;14.10;99.90
18406;DHT22;9329;48.720;9.588;2022-10-23T05:05:56;14.10;99.90
18406;DHT22;9329;48.720;9.588;2022-10-23T05:08:35;14.10;99.90
18406;DHT22;9329;48.720;9.588;2022-10-23T05:11:20;14.20;99.90
18406;DHT22;9329;48.720;9.588;2022-10-23T05:13:49;14.20;99.90
18406;DHT22;9329;48.720;9.588;2022-10-23T05:16:22;14.30;99.90
18406;DHT22;9329;48.720;9.588;2022-10-23T05:18:50;14.30;99.90
18406;DHT22;9329;48.720;9.588;2022-10-23T05:21:21;14.40;99.90
18406;DHT22;9329;48.720;9.588;2022-10-23T05:23:50;14.60;99.90
18406;DHT22;9329;48.720;9.588;2022-10-23T05:26:18;14.40;99.90
18406;DHT22;9329;48.720;9.588;2022-10-23T05:28:47;14.00;99.90
18406;DHT22;9329;48.720;9.588;2022-10-23T05:31:16;14.40;99.90
18406;DHT22;9329;48.720;9.588;2022-10-23T05:33:47;14.00;99.90
18406;DHT22;9329;48.720;9.588;2022-10-23T05:36:14;14.20;99.90
18406;DHT22;9329;48.720;9.588;2022-10-23T05:38:44;13.90;99.90
18406;DHT22;9329;48.720;9.588;2022-10-23T05:41:15;14.00;99.90
18406;DHT22;9329;48.720;9.588;2022-10-23T05:43:42;14.10;99.90
18406;DHT22;9329;48.720;9.588;2022-10-23T05:46:29;13.90;99.90
18406;DHT22;9329;48.720;9.588;2022-10-23T05:49:22;14.00;99.90
18406;DHT22;9329;48.720;9.588;2022-10-23T05:52:09;13.80;99.90
18406;DHT22;9329;48.720;9.588;2022-10-23T05:55:13;13.90;99.90
18406;DHT22;9329;48.720;9.588;2022-10-23T05:57:57;13.80;99.90
18406;DHT22;9329;48.720;9.588;2022-10-23T06:00:53;13.50;99.90
18406;DHT22;9329;48.720;9.588;2022-10-23T06:03:51;13.90;99.90
18406;DHT22;9329;48.720;9.588;2022-10-23T06:06:22;13.70;99.90
18406;DHT22;9329;48.720;9.588;2022-10-23T06:08:49;13.50;99.90
18406;DHT22;9329;48.720;9.588;2022-10-23T06:11:21;13.60;99.90
18406;DHT22;9329;48.720;9.588;2022-10-23T06:13:58;13.40;99.90
18406;DHT22;9329;48.720;9.588;2022-10-23T06:16:26;13.50;99.90
18406;DHT22;9329;48.720;9.588;2022-10-23T06:18:53;13.60;99.90
18406;DHT22;9329;48.720;9.588;2022-10-23T06:21:20;13.70;99.90
18406;DHT22;9329;48.720;9.588;2022-10-23T06:23:49;13.60;99.90
18406;DHT22;9329;48.720;9.588;2022-10-23T06:26:23;13.60;99.90
18406;DHT22;9329;48.720;9.588;2022-10-23T06:29:17;13.70;99.90
18406;DHT22;9329;48.720;9.588;2022-10-23T06:31:44;13.40;99.90
18406;DHT22;9329;48.720;9.588;2022-10-23T06:34:11;13.50;99.90
18406;DHT22;9329;48.720;9.588;2022-10-23T06:36:39;13.30;99.90
18406;DHT22;9329;48.720;9.588;2022-10-23T06:39:22;13.60;99.90
18406;DHT22;9329;48.720;9.588;2022-10-23T06:42:01;13.60;99.90
18406;DHT22;9329;48.720;9.588;2022-10-23T06:44:47;13.60;99.90
18406;DHT22;9329;48.720;9.588;2022-10-23T06:47:25;13.40;99.90
18406;DHT22;9329;48.720;9.588;2022-10-23T06:50:27;13.60;99.90
18406;DHT22;9329;48.720;9.588;2022-10-23T06:52:56;13.30;99.90
18406;DHT22;9329;48.720;9.588;2022-10-23T06:55:25;13.60;99.90
18406;DHT22;9329;48.720;9.588;2022-10-23T06:57:53;13.60;99.90
18406;DHT22;9329;48.720;9.588;2022-10-23T07:00:23;13.50;99.90
18406;DHT22;9329;48.720;9.588;2022-10-23T07:02:51;13.60;99.90
18406;DHT22;9329;48.720;9.588;2022-10-23T07:05:18;13.70;99.90
18406;DHT22;9329;48.720;9.588;2022-10-23T07:07:46;13.90;99.90
18406;DHT22;9329;48.720;9.588;2022-10-23T07:10:18;14.00;99.90
18406;DHT22;9329;48.720;9.588;2022-10-23T07:13:07;14.20;99.90
18406;DHT22;9329;48.720;9.588;2022-10-23T07:15:37;14.10;99.90
18406;DHT22;9329;48.720;9.588;2022-10-23T07:18:06;14.30;99.90
18406;DHT22;9329;48.720;9.588;2022-10-23T07:20:57;14.40;99.90
18406;DHT22;9329;48.720;9.588;2022-10-23T07:23:24;14.40;99.90
18406;DHT22;9329;48.720;9.588;2022-10-23T07:25:51;14.60;99.90
18406;DHT22;9329;48.720;9.588;2022-10-23T07:28:24;14.70;99.90
18406;DHT22;9329;48.720;9.588;2022-10-23T07:30:55;15.00;99.90
18406;DHT22;9329;48.720;9.588;2022-10-23T07:33:22;15.00;99.90
18406;DHT22;9329;48.720;9.588;2022-10-23T07:35:59;15.20;99.90
18406;DHT22;9329;48.720;9.588;2022-10-23T07:38:27;15.20;99.90
18406;DHT22;9329;48.720;9.588;2022-10-23T07:40:56;15.20;99.90
18406;DHT22;9329;48.720;9.588;2022-10-23T07:43:25;15.50;99.90
18406;DHT22;9329;48.720;9.588;2022-10-23T07:45:52;15.80;99.90
18406;DHT22;9329;48.720;9.588;2022-10-23T07:48:39;15.80;99.90
18406;DHT22;9329;48.720;9.588;2022-10-23T07:51:10;16.20;99.90
18406;DHT22;9329;48.720;9.588;2022-10-23T07:53:41;16.00;99.90
18406;DHT22;9329;48.720;9.588;2022-10-23T07:56:41;16.30;99.90
18406;DHT22;9329;48.720;9.588;2022-10-23T07:59:26;16.70;99.90
18406;DHT22;9329;48.720;9.588;2022-10-23T08:01:53;16.70;99.90
18406;DHT22;9329;48.720;9.588;2022-10-23T08:04:22;16.70;99.90
18406;DHT22;9329;48.720;9.588;2022-10-23T08:06:57;16.50;99.90
18406;DHT22;9329;48.720;9.588;2022-10-23T08:09:30;16.70;99.90
18406;DHT22;9329;48.720;9.588;2022-10-23T08:11:59;17.00;99.90
18406;DHT22;9329;48.720;9.588;2022-10-23T08:14:27;16.80;99.90
18406;DHT22;9329;48.720;9.588;2022-10-23T08:16:54;16.90;99.90
18406;DHT22;9329;48.720;9.588;2022-10-23T08:19:41;16.90;99.90
18406;DHT22;9329;48.720;9.588;2022-10-23T08:22:13;16.80;99.90
18406;DHT22;9329;48.720;9.588;2022-10-23T08:24:43;16.80;99.90
18406;DHT22;9329;48.720;9.588;2022-10-23T08:27:10;17.20;99.90
18406;DHT22;9329;48.720;9.588;2022-10-23T08:29:45;17.10;99.90
18406;DHT22;9329;48.720;9.588;2022-10-23T08:32:14;16.90;99.90
18406;DHT22;9329;48.720;9.588;2022-10-23T08:34:53;16.90;99.90
18406;DHT22;9329;48.720;9.588;2022-10-23T08:37:22;16.90;99.90
18406;DHT22;9329;48.720;9.588;2022-10-23T08:39:49;16.90;99.90
18406;DHT22;9329;48.720;9.588;2022-10-23T08:42:23;17.40;99.90
18406;DHT22;9329;48.720;9.588;2022-10-23T08:44:56;17.60;99.90
18406;DHT22;9329;48.720;9.588;2022-10-23T08:47:26;18.10;99.90
18406;DHT22;9329;48.720;9.588;2022-10-23T08:50:13;18.40;99.90
18406;DHT22;9329;48.720;9.588;2022-10-23T08:52:46;18.70;99.90
18406;DHT22;9329;48.720;9.588;2022-10-23T08:55:15;18.90;99.90
18406;DHT22;9329;48.720;9.588;2022-10-23T08:57:44;19.10;99.90
18406;DHT22;9329;48.720;9.588;2022-10-23T09:00:16;19.10;99.90
18406;DHT22;9329;48.720;9.588;2022-10-23T09:02:44;19.40;99.90
18406;DHT22;9329;48.720;9.588;2022-10-23T09:05:12;19.40;99.90
18406;DHT22;9329;48.720;9.588;2022-10-23T09:07:42;19.60;99.90
18406;DHT22;9329;48.720;9.588;2022-10-23T09:12:55;19.30;99.90
18406;DHT22;9329;48.720;9.588;2022-10-23T09:15:25;19.50;99.90
18406;DHT22;9329;48.720;9.588;2022-10-23T09:17:55;19.40;99.90
18406;DHT22;9329;48.720;9.588;2022-10-23T09:20:23;19.30;99.90
18406;DHT22;9329;48.720;9.588;2022-10-23T09:22:52;19.30;99.90
18406;DHT22;9329;48.720;9.588;2022-10-23T09:25:20;19.40;99.90
18406;DHT22;9329;48.720;9.588;2022-10-23T09:27:48;19.30;99.90
18406;DHT22;9329;48.720;9.588;2022-10-23T09:30:25;19.30;99.90
18406;DHT22;9329;48.720;9.588;2022-10-23T09:32:55;19.40;99.90
18406;DHT22;9329;48.720;9.588;2022-10-23T09:35:23;19.70;99.90
18406;DHT22;9329;48.720;9.588;2022-10-23T09:37:50;19.90;99.90
18406;DHT22;9329;48.720;9.588;2022-10-23T09:40:20;20.20;99.90
18406;DHT22;9329;48.720;9.588;2022-10-23T09:42:50;20.30;99.90
18406;DHT22;9329;48.720;9.588;2022-10-23T09:45:21;20.40;99.90
18406;DHT22;9329;48.720;9.588;2022-10-23T09:47:49;20.50;99.90
18406;DHT22;9329;48.720;9.588;2022-10-23T09:50:18;20.20;99.90
18406;DHT22;9329;48.720;9.588;2022-10-23T09:52:47;20.30;99.90
18406;DHT22;9329;48.720;9.588;2022-10-23T09:55:18;20.20;99.90
18406;DHT22;9329;48.720;9.588;2022-10-23T09:57:45;20.40;99.90
18406;DHT22;9329;48.720;9.588;2022-10-23T10:00:14;20.20;99.90
18406;DHT22;9329;48.720;9.588;2022-10-23T10:02:43;20.30;99.90
18406;DHT22;9329;48.720;9.588;2022-10-23T10:06:00;20.40;99.90
18406;DHT22;9329;48.720;9.588;2022-10-23T10:08:31;20.60;99.90
18406;DHT22;9329;48.720;9.588;2022-10-23T10:11:00;20.60;99.90
18406;DHT22;9329;48.720;9.588;2022-10-23T10:13:33;20.70;99.90
18406;DHT22;9329;48.720;9.588;2022-10-23T10:16:08;20.80;99.90
18406;DHT22;9329;48.720;9.588;2022-10-23T10:18:38;20.90;99.90
18406;DHT22;9329;48.720;9.588;2022-10-23T10:21:11;21.40;99.90
18406;DHT22;9329;48.720;9.588;2022-10-23T10:23:41;21.70;99.90
18406;DHT22;9329;48.720;9.588;2022-10-23T10:26:17;21.60;99.90
18406;DHT22;9329;48.720;9.588;2022-10-23T10:29:01;21.50;99.90
18406;DHT22;9329;48.720;9.588;2022-10-23T10:31:32;21.90;99.90
18406;DHT22;9329;48.720;9.588;2022-10-23T10:34:04;22.10;99.90
18406;DHT22;9329;48.720;9.588;2022-10-23T10:39:26;22.50;99.90
18406;DHT22;9329;48.720;9.588;2022-10-23T10:42:03;22.60;99.90
18406;DHT22;9329;48.720;9.588;2022-10-23T10:47:20;23.00;99.90
18406;DHT22;9329;48.720;9.588;2022-10-23T10:49:54;23.20;99.90
18406;DHT22;9329;48.720;9.588;2022-10-23T10:52:46;23.60;99.90
18406;DHT22;9329;48.720;9.588;2022-10-23T10:55:18;23.70;99.90
18406;DHT22;9329;48.720;9.588;2022-10-23T10:57:49;23.80;99.90
18406;DHT22;9329;48.720;9.588;2022-10-23T11:00:18;24.00;99.90
18406;DHT22;9329;48.720;9.588;2022-10-23T11:02:47;24.10;99.90
18406;DHT22;9329;48.720;9.588;2022-10-23T11:05:20;24.20;99.90
18406;DHT22;9329;48.720;9.588;2022-10-23T11:07:51;24.60;99.90
18406;DHT22;9329;48.720;9.588;2022-10-23T11:10:20;24.70;99.90
18406;DHT22;9329;48.720;9.588;2022-10-23T11:12:47;24.60;99.90
18406;DHT22;9329;48.720;9.588;2022-10-23T11:15:15;25.00;99.90
18406;DHT22;9329;48.720;9.588;2022-10-23T11:17:43;25.00;99.90
18406;DHT22;9329;48.720;9.588;2022-10-23T11:20:15;25.30;99.90
18406;DHT22;9329;48.720;9.588;2022-10-23T11:22:50;25.70;99.90
18406;DHT22;9329;48.720;9.588;2022-10-23T11:25:25;25.80;99.90
18406;DHT22;9329;48.720;9.588;2022-10-23T11:28:04;26.00;99.90
18406;DHT22;9329;48.720;9.588;2022-10-23T11:30:34;26.20;99.90
18406;DHT22;9329;48.720;9.588;2022-10-23T11:35:52;25.50;99.90
18406;DHT22;9329;48.720;9.588;2022-10-23T11:38:23;25.30;99.90
18406;DHT22;9329;48.720;9.588;2022-10-23T11:40:53;24.90;99.90
18406;DHT22;9329;48.720;9.588;2022-10-23T11:43:27;24.60;99.90
18406;DHT22;9329;48.720;9.588;2022-10-23T11:45:54;24.40;99.90
18406;DHT22;9329;48.720;9.588;2022-10-23T11:48:22;24.50;99.90
18406;DHT22;9329;48.720;9.588;2022-10-23T11:50:50;24.60;99.90
18406;DHT22;9329;48.720;9.588;2022-10-23T11:53:38;24.30;99.90
18406;DHT22;9329;48.720;9.588;2022-10-23T11:58:49;23.70;99.90
18406;DHT22;9329;48.720;9.588;2022-10-23T12:01:26;23.50;99.90
18406;DHT22;9329;48.720;9.588;2022-10-23T12:03:55;23.70;99.90
18406;DHT22;9329;48.720;9.588;2022-10-23T12:06:25;23.70;99.90
18406;DHT22;9329;48.720;9.588;2022-10-23T12:08:54;23.50;99.90
18406;DHT22;9329;48.720;9.588;2022-10-23T12:11:26;23.20;99.90
18406;DHT22;9329;48.720;9.588;2022-10-23T12:13:54;23.20;99.90
18406;DHT22;9329;48.720;9.588;2022-10-23T12:16:21;23.70;99.90
18406;DHT22;9329;48.720;9.588;2022-10-23T12:18:49;24.20;99.90
18406;DHT22;9329;48.720;9.588;2022-10-23T12:21:25;24.80;99.90
18406;DHT22;9329;48.720;9.588;2022-10-23T12:24:04;25.40;99.90
18406;DHT22;9329;48.720;9.588;2022-10-23T12:26:47;25.60;99.90
18406;DHT22;9329;48.720;9.588;2022-10-23T12:32:12;26.10;99.90
18406;DHT22;9329;48.720;9.588;2022-10-23T12:34:47;26.50;99.90
18406;DHT22;9329;48.720;9.588;2022-10-23T12:37:23;26.20;99.90
18406;DHT22;9329;48.720;9.588;2022-10-23T12:39:54;26.10;99.90
18406;DHT22;9329;48.720;9.588;2022-10-23T12:42:22;25.70;99.90
18406;DHT22;9329;48.720;9.588;2022-10-23T12:44:58;26.00;99.90
18406;DHT22;9329;48.720;9.588;2022-10-23T12:47:26;26.20;99.90
18406;DHT22;9329;48.720;9.588;2022-10-23T12:49:54;26.40;99.90
18406;DHT22;9329;48.720;9.588;2022-10-23T12:52:23;25.60;99.90
18406;DHT22;9329;48.720;9.588;2022-10-23T12:54:50;25.30;99.90
18406;DHT22;9329;48.720;9.588;2022-10-23T12:57:18;25.20;99.90
18406;DHT22;9329;48.720;9.588;2022-10-23T12:59:47;25.60;99.90
18406;DHT22;9329;48.720;9.588;2022-10-23T13:02:20;26.00;99.90
18406;DHT22;9329;48.720;9.588;2022-10-23T13:04:52;26.60;99.90
18406;DHT22;9329;48.720;9.588;2022-10-23T13:07:19;27.10;99.90
18406;DHT22;9329;48.720;9.588;2022-10-23T13:09:48;27.90;99.90
18406;DHT22;9329;48.720;9.588;2022-10-23T13:12:24;29.40;96.70
18406;DHT22;9329;48.720;9.588;2022-10-23T13:14:55;29.00;97.20
18406;DHT22;9329;48.720;9.588;2022-10-23T13:17:31;29.00;99.80
18406;DHT22;9329;48.720;9.588;2022-10-23T13:20:08;29.60;93.70
18406;DHT22;9329;48.720;9.588;2022-10-23T13:22:35;30.20;93.20
18406;DHT22;9329;48.720;9.588;2022-10-23T13:25:02;30.30;91.80
18406;DHT22;9329;48.720;9.588;2022-10-23T13:27:31;30.30;91.30
18406;DHT22;9329;48.720;9.588;2022-10-23T13:29:58;30.00;92.20
18406;DHT22;9329;48.720;9.588;2022-10-23T13:32:28;31.00;92.40
18406;DHT22;9329;48.720;9.588;2022-10-23T13:34:56;31.60;89.90
18406;DHT22;9329;48.720;9.588;2022-10-23T13:37:25;32.50;89.10
18406;DHT22;9329;48.720;9.588;2022-10-23T13:39:59;33.00;85.80
18406;DHT22;9329;48.720;9.588;2022-10-23T13:43:45;32.20;82.00
18406;DHT22;9329;48.720;9.588;2022-10-23T13:45:24;32.20;81.00
18406;DHT22;9329;48.720;9.588;2022-10-23T13:47:51;31.00;84.20
18406;DHT22;9329;48.720;9.588;2022-10-23T13:50:18;29.50;88.00
18406;DHT22;9329;48.720;9.588;2022-10-23T13:52:51;29.50;90.20
18406;DHT22;9329;48.720;9.588;2022-10-23T13:55:21;29.20;87.50
18406;DHT22;9329;48.720;9.588;2022-10-23T13:57:48;28.50;92.20
18406;DHT22;9329;48.720;9.588;2022-10-23T14:00:16;28.00;92.00
18406;DHT22;9329;48.720;9.588;2022-10-23T14:02:43;27.80;92.00
18406;DHT22;9329;48.720;9.588;2022-10-23T14:05:10;27.30;94.30
18406;DHT22;9329;48.720;9.588;2022-10-23T14:07:37;26.90;94.60
18406;DHT22;9329;48.720;9.588;2022-10-23T14:10:08;26.60;93.30
18406;DHT22;9329;48.720;9.588;2022-10-23T14:12:37;26.20;94.70
18406;DHT22;9329;48.720;9.588;2022-10-23T14:15:05;25.70;95.70
18406;DHT22;9329;48.720;9.588;2022-10-23T14:17:33;25.40;96.00
18406;DHT22;9329;48.720;9.588;2022-10-23T14:20:00;25.10;98.20
18406;DHT22;9329;48.720;9.588;2022-10-23T14:22:29;24.80;98.10
18406;DHT22;9329;48.720;9.588;2022-10-23T14:24:56;24.70;98.80
18406;DHT22;9329;48.720;9.588;2022-10-23T14:27:24;24.50;98.20
18406;DHT22;9329;48.720;9.588;2022-10-23T14:29:51;24.40;98.40
18406;DHT22;9329;48.720;9.588;2022-10-23T14:32:18;24.20;99.60
18406;DHT22;9329;48.720;9.588;2022-10-23T14:34:48;23.70;99.90
18406;DHT22;9329;48.720;9.588;2022-10-23T14:37:15;23.30;99.90
18406;DHT22;9329;48.720;9.588;2022-10-23T14:39:44;23.00;99.90
18406;DHT22;9329;48.720;9.588;2022-10-23T14:42:11;22.90;99.90
18406;DHT22;9329;48.720;9.588;2022-10-23T14:44:40;22.90;99.90
18406;DHT22;9329;48.720;9.588;2022-10-23T14:47:07;22.90;99.90
18406;DHT22;9329;48.720;9.588;2022-10-23T14:49:34;23.10;99.90
18406;DHT22;9329;48.720;9.588;2022-10-23T14:52:01;23.00;99.90
18406;DHT22;9329;48.720;9.588;2022-10-23T14:54:28;23.00;99.90
18406;DHT22;9329;48.720;9.588;2022-10-23T14:56:57;22.80;99.90
18406;DHT22;9329;48.720;9.588;2022-10-23T14:59:24;22.70;99.90
18406;DHT22;9329;48.720;9.588;2022-10-23T15:01:52;22.70;99.90
18406;DHT22;9329;48.720;9.588;2022-10-23T15:04:19;22.60;99.90
18406;DHT22;9329;48.720;9.588;2022-10-23T15:06:46;22.50;99.90
18406;DHT22;9329;48.720;9.588;2022-10-23T15:09:13;22.50;99.90
18406;DHT22;9329;48.720;9.588;2022-10-23T15:11:40;22.50;99.90
18406;DHT22;9329;48.720;9.588;2022-10-23T15:14:08;22.50;99.90
18406;DHT22;9329;48.720;9.588;2022-10-23T15:16:34;22.50;99.90
18406;DHT22;9329;48.720;9.588;2022-10-23T15:19:07;22.60;99.90
18406;DHT22;9329;48.720;9.588;2022-10-23T15:21:34;22.40;99.90
18406;DHT22;9329;48.720;9.588;2022-10-23T15:24:01;22.30;99.90
18406;DHT22;9329;48.720;9.588;2022-10-23T15:26:30;22.30;99.90
18406;DHT22;9329;48.720;9.588;2022-10-23T15:28:58;22.40;99.90
18406;DHT22;9329;48.720;9.588;2022-10-23T15:31:42;22.30;99.90
18406;DHT22;9329;48.720;9.588;2022-10-23T15:34:11;22.00;99.90
18406;DHT22;9329;48.720;9.588;2022-10-23T15:36:38;22.00;99.90
18406;DHT22;9329;48.720;9.588;2022-10-23T15:39:06;21.70;99.90
18406;DHT22;9329;48.720;9.588;2022-10-23T15:41:34;21.70;99.90
18406;DHT22;9329;48.720;9.588;2022-10-23T15:44:01;21.60;99.90
18406;DHT22;9329;48.720;9.588;2022-10-23T15:46:28;21.30;99.90
18406;DHT22;9329;48.720;9.588;2022-10-23T15:48:55;21.40;99.90
18406;DHT22;9329;48.720;9.588;2022-10-23T15:51:24;21.20;99.90
18406;DHT22;9329;48.720;9.588;2022-10-23T15:53:51;21.00;99.90
18406;DHT22;9329;48.720;9.588;2022-10-23T15:56:17;20.90;99.90
18406;DHT22;9329;48.720;9.588;2022-10-23T15:58:44;20.70;99.90
18406;DHT22;9329;48.720;9.588;2022-10-23T16:01:11;20.80;99.90
18406;DHT22;9329;48.720;9.588;2022-10-23T16:03:38;20.50;99.90
18406;DHT22;9329;48.720;9.588;2022-10-23T16:06:06;20.60;99.90
18406;DHT22;9329;48.720;9.588;2022-10-23T16:08:35;20.50;99.90
18406;DHT22;9329;48.720;9.588;2022-10-23T16:11:03;20.50;99.90
18406;DHT22;9329;48.720;9.588;2022-10-23T16:13:30;20.50;99.90
18406;DHT22;9329;48.720;9.588;2022-10-23T16:16:01;20.60;99.90
18406;DHT22;9329;48.720;9.588;2022-10-23T16:18:28;20.40;99.90
18406;DHT22;9329;48.720;9.588;2022-10-23T16:20:55;20.40;99.90
18406;DHT22;9329;48.720;9.588;2022-10-23T16:23:22;20.30;99.90
18406;DHT22;9329;48.720;9.588;2022-10-23T16:25:50;20.20;99.90
18406;DHT22;9329;48.720;9.588;2022-10-23T16:28:17;20.20;99.90